Time;durP1;ratioP1;P1;durP2;ratioP2;P2;SDS_P1;SDS_P2;PMS_P1;PMS_P2;Temp;Humidity;BMP_temperature;BMP_pressure;BME280_temperature;BME280_humidity;BME280_pressure;Samples;Min_cycle;Max_cycle;Signal;HPM_P1;HPM_P2
2021/12/02 00:00:38;;;;;;;;;;;;;;;-1.16;100.00;90379.38;5050327;28;19944;-70
2021/12/02 00:03:07;;;;;;;;;;;;;;;-1.13;100.00;90379.66;5051550;28;19917;-70
2021/12/02 00:05:32;;;;;;;;;;;;;;;-1.08;100.00;90387.53;5051578;28;19916;-71
2021/12/02 00:07:57;;;;;;;;;;;;;;;-1.04;100.00;90390.41;5051685;28;19916;-71
2021/12/02 00:10:27;;;;;;;;;;;;;;;-1.06;100.00;90387.28;5051533;28;20384;-71
2021/12/02 00:12:55;;;;;;;;;;;;;;;-1.21;100.00;90390.56;5051610;28;19923;-71
2021/12/02 00:15:24;;;;;;;;;;;;;;;-1.31;100.00;90395.72;5051569;28;19921;-70
2021/12/02 00:17:57;;;;;;;;;;;;;;;-1.34;100.00;90396.22;5051594;28;19916;-71
2021/12/02 00:23:22;;;;;;;;;;;;;;;-1.54;100.00;90397.66;5051821;28;20318;-70
2021/12/02 00:25:49;;;;;;;;;;;;;;;-1.45;100.00;90394.56;5051480;28;19916;-71
2021/12/02 00:28:14;;;;;;;;;;;;;;;-1.47;100.00;90400.03;5051539;28;19928;-70
2021/12/02 00:30:40;;;;;;;;;;;;;;;-1.42;100.00;90407.91;5051385;28;19920;-70
2021/12/02 00:33:05;;;;;;;;;;;;;;;-1.33;100.00;90408.22;5051476;28;19924;-70
2021/12/02 00:35:31;;;;;;;;;;;;;;;-1.33;100.00;90410.84;5051445;28;19916;-71
2021/12/02 00:37:58;;;;;;;;;;;;;;;-1.35;100.00;90403.25;5051348;28;19958;-72
2021/12/02 00:40:23;;;;;;;;;;;;;;;-1.31;100.00;90406.16;5051959;28;19916;-70
2021/12/02 00:42:49;;;;;;;;;;;;;;;-1.28;100.00;90400.44;5055361;28;19927;-70
2021/12/02 00:45:15;;;;;;;;;;;;;;;-1.34;100.00;90401.44;5055233;28;19920;-71
2021/12/02 00:47:41;;;;;;;;;;;;;;;-1.34;100.00;90401.44;5055282;28;19917;-68
2021/12/02 00:50:06;;;;;;;;;;;;;;;-1.34;100.00;90401.44;5055409;28;19920;-68
2021/12/02 00:52:32;;;;;;;;;;;;;;;-1.16;100.00;90410.69;5055164;28;19939;-68
2021/12/02 00:54:58;;;;;;;;;;;;;;;-1.09;100.00;90408.66;5055125;28;19917;-67
2021/12/02 00:57:25;;;;;;;;;;;;;;;-1.11;100.00;90406.28;5055052;28;19990;-67
2021/12/02 00:59:51;;;;;;;;;;;;;;;-1.18;100.00;90407.56;5054954;28;20005;-67
2021/12/02 01:02:18;;;;;;;;;;;;;;;-1.19;100.00;90406.75;5054799;28;19920;-67
2021/12/02 01:04:43;;;;;;;;;;;;;;;-1.24;100.00;90401.53;5054875;28;19917;-67
2021/12/02 01:07:09;;;;;;;;;;;;;;;-1.25;100.00;90410.38;5054877;28;19996;-67
2021/12/02 01:09:34;;;;;;;;;;;;;;;-1.32;100.00;90412.41;5054743;28;19952;-67
2021/12/02 01:12:00;;;;;;;;;;;;;;;-1.30;100.00;90402.50;5054786;28;19978;-67
2021/12/02 01:14:26;;;;;;;;;;;;;;;-1.21;100.00;90407.03;5054805;28;19973;-67
2021/12/02 01:16:51;;;;;;;;;;;;;;;-1.19;100.00;90403.38;5054746;28;19917;-67
2021/12/02 01:19:17;;;;;;;;;;;;;;;-1.18;100.00;90407.56;5054573;28;20015;-67
2021/12/02 01:21:43;;;;;;;;;;;;;;;-1.28;100.00;90406.44;5054599;28;19917;-67
2021/12/02 01:24:10;;;;;;;;;;;;;;;-1.38;100.00;90397.75;5054784;28;19924;-67
2021/12/02 01:26:36;;;;;;;;;;;;;;;-1.51;100.00;90407.56;5054686;28;20379;-67
2021/12/02 01:29:03;;;;;;;;;;;;;;;-1.56;100.00;90406.75;5054345;28;19924;-67
2021/12/02 01:31:31;;;;;;;;;;;;;;;-1.60;100.00;90403.84;5053120;28;20364;-67
2021/12/02 01:33:59;;;;;;;;;;;;;;;-1.65;100.00;90395.19;5054364;28;19921;-67
2021/12/02 01:36:25;;;;;;;;;;;;;;;-1.75;100.00;90392.50;5054365;28;20386;-67
2021/12/02 01:38:52;;;;;;;;;;;;;;;-1.76;100.00;90390.94;5054353;28;19917;-67
2021/12/02 01:41:17;;;;;;;;;;;;;;;-1.66;100.00;90404.84;5054174;28;19996;-67
2021/12/02 01:43:42;;;;;;;;;;;;;;;-1.65;100.00;90416.84;5054127;28;20012;-67
2021/12/02 01:46:08;;;;;;;;;;;;;;;-1.59;100.00;90413.22;5054180;28;19917;-67
2021/12/02 01:48:35;;;;;;;;;;;;;;;-1.58;100.00;90408.81;5054165;28;19921;-67
2021/12/02 01:51:02;;;;;;;;;;;;;;;-1.52;100.00;90410.44;5053599;28;19917;-67
2021/12/02 01:53:30;;;;;;;;;;;;;;;-1.56;100.00;90404.94;5054021;28;19917;-67
2021/12/02 01:56:09;;;;;;;;;;;;;;;-1.55;100.00;90410.94;5053998;28;19912;-67
2021/12/02 01:58:40;;;;;;;;;;;;;;;-1.53;100.00;90403.66;5053960;28;20368;-67
2021/12/02 02:01:08;;;;;;;;;;;;;;;-1.48;100.00;90405.50;5053711;28;19913;-67
2021/12/02 02:03:33;;;;;;;;;;;;;;;-1.52;100.00;90408.63;5036105;28;19944;-67
2021/12/02 02:05:59;;;;;;;;;;;;;;;-1.68;100.00;90406.91;5033868;28;20436;-67
2021/12/02 02:08:27;;;;;;;;;;;;;;;-1.68;100.00;90395.69;5033846;28;19923;-67
2021/12/02 02:10:53;;;;;;;;;;;;;;;-1.58;100.00;90400.97;5033728;28;20397;-67
2021/12/02 02:13:20;;;;;;;;;;;;;;;-1.48;100.00;90400.28;5033734;28;20051;-67
2021/12/02 02:15:49;;;;;;;;;;;;;;;-1.52;100.00;90402.63;5033668;28;20410;-67
2021/12/02 02:18:22;;;;;;;;;;;;;;;-1.60;100.00;90403.84;5033913;28;19935;-67
2021/12/02 02:20:58;;;;;;;;;;;;;;;-1.51;100.00;90399.75;5033524;28;19913;-67
2021/12/02 02:23:26;;;;;;;;;;;;;;;-1.49;100.00;90386.47;5033563;28;20383;-67
2021/12/02 02:25:51;;;;;;;;;;;;;;;-1.48;100.00;90390.63;5033493;28;20386;-67
2021/12/02 02:28:17;;;;;;;;;;;;;;;-1.49;100.00;90390.88;5033474;28;19913;-67
2021/12/02 02:30:42;;;;;;;;;;;;;;;-1.45;100.00;90381.53;5033397;28;19920;-67
2021/12/02 02:33:10;;;;;;;;;;;;;;;-1.47;100.00;90391.44;5033383;28;19913;-67
2021/12/02 02:35:36;;;;;;;;;;;;;;;-1.47;100.00;90402.66;5033349;28;19913;-67
2021/12/02 02:38:01;;;;;;;;;;;;;;;-1.47;100.00;90388.81;5033324;28;19967;-67
2021/12/02 02:40:27;;;;;;;;;;;;;;;-1.54;100.00;90397.66;5200646;23;21315;-72
2021/12/02 02:42:58;;;;;;;;;;;;;;;-1.52;100.00;90397.41;5093340;28;20370;-72
2021/12/02 02:45:24;;;;;;;;;;;;;;;-1.51;100.00;90402.34;5093209;28;19915;-69
2021/12/02 02:47:50;;;;;;;;;;;;;;;-1.66;100.00;90397.03;5093577;28;20006;-72
2021/12/02 02:50:17;;;;;;;;;;;;;;;-1.65;100.00;90405.63;5093113;28;20312;-70
2021/12/02 02:52:42;;;;;;;;;;;;;;;-1.65;100.00;90400.41;5093142;28;20377;-70
2021/12/02 02:55:16;;;;;;;;;;;;;;;-1.68;100.00;90386.06;5091871;28;19966;-70
2021/12/02 02:58:28;;;;;;;;;;;;;;;-1.63;100.00;90399.13;5093136;28;19919;-70
2021/12/02 03:00:34;;;;;;;;;;;;;;;-1.62;100.00;90394.69;5087097;28;19912;-70
2021/12/02 03:06:05;;;;;;;;;;;;;;;-1.65;100.00;90403.81;5092889;28;19912;-71
2021/12/02 03:08:49;;;;;;;;;;;;;;;-1.83;100.00;90398.97;5092871;28;19911;-71
2021/12/02 03:11:16;;;;;;;;;;;;;;;-1.88;100.00;90404.13;5092756;28;19920;-70
2021/12/02 03:13:50;;;;;;;;;;;;;;;-1.82;100.00;90405.75;5092764;28;19916;-71
2021/12/02 03:19:00;;;;;;;;;;;;;;;-1.75;100.00;90389.88;5092964;28;19969;-71
2021/12/02 03:21:25;;;;;;;;;;;;;;;-1.79;100.00;90389.59;5092529;28;19912;-71
2021/12/02 03:23:51;;;;;;;;;;;;;;;-1.77;100.00;90397.97;5092530;28;19965;-71
2021/12/02 03:26:17;;;;;;;;;;;;;;;-1.77;100.00;90379.72;5092511;28;19951;-71
2021/12/02 03:28:42;;;;;;;;;;;;;;;-1.79;100.00;90378.38;5092491;28;19912;-71
2021/12/02 03:31:11;;;;;;;;;;;;;;;-1.87;100.00;90375.22;5092372;28;19912;-71
2021/12/02 03:33:36;;;;;;;;;;;;;;;-1.85;100.00;90378.34;5092407;28;19912;-71
2021/12/02 03:36:01;;;;;;;;;;;;;;;-1.81;100.00;90374.22;5092415;28;19919;-71
2021/12/02 03:38:27;;;;;;;;;;;;;;;-1.73;100.00;90375.59;5092379;28;19919;-71
2021/12/02 03:40:52;;;;;;;;;;;;;;;-1.78;100.00;90374.75;5092253;28;19916;-71
2021/12/02 03:43:17;;;;;;;;;;;;;;;-1.83;100.00;90378.09;5092243;28;19995;-71
2021/12/02 03:45:43;;;;;;;;;;;;;;;-1.74;100.00;90384.41;5092112;28;19959;-71
2021/12/02 03:48:08;;;;;;;;;;;;;;;-1.62;100.00;90387.66;5092183;28;19915;-70
2021/12/02 03:50:33;;;;;;;;;;;;;;;-1.57;100.00;90374.69;5092061;28;19919;-71
2021/12/02 03:52:59;;;;;;;;;;;;;;;-1.53;100.00;90380.97;5092422;28;19922;-70
2021/12/02 03:55:24;;;;;;;;;;;;;;;-1.38;100.00;90375.06;5092039;28;19916;-71
2021/12/02 03:57:50;;;;;;;;;;;;;;;-1.29;100.00;90364.94;5092074;28;19961;-70
2021/12/02 04:00:15;;;;;;;;;;;;;;;-1.16;100.00;90369.72;5091920;28;19961;-71
2021/12/02 04:02:41;;;;;;;;;;;;;;;-1.09;100.00;90370.31;5091977;28;19951;-70
2021/12/02 04:05:06;;;;;;;;;;;;;;;-1.06;100.00;90374.22;5091921;28;19965;-71
2021/12/02 04:07:32;;;;;;;;;;;;;;;-1.09;100.00;90366.91;5091926;28;19916;-71
2021/12/02 04:09:58;;;;;;;;;;;;;;;-1.11;100.00;90368.97;5092135;28;19992;-71
2021/12/02 04:12:34;;;;;;;;;;;;;;;-1.05;100.00;90376.59;5091927;28;19916;-71
2021/12/02 04:17:43;;;;;;;;;;;;;;;-1.05;100.00;90368.75;5070880;28;20358;-67
2021/12/02 04:20:16;;;;;;;;;;;;;;;-1.17;100.00;90367.38;5069904;28;19913;-65
2021/12/02 04:22:42;;;;;;;;;;;;;;;-1.32;100.00;90376.66;5071377;28;19966;-67
2021/12/02 04:25:08;;;;;;;;;;;;;;;-1.44;100.00;90375.28;5071172;28;19916;-65
2021/12/02 04:27:34;;;;;;;;;;;;;;;-1.60;100.00;90372.53;5071185;28;19917;-66
2021/12/02 04:29:59;;;;;;;;;;;;;;;-1.60;100.00;90376.97;5070883;28;19935;-67
2021/12/02 04:32:25;;;;;;;;;;;;;;;-1.63;100.00;90375.66;5070334;28;19916;-66
2021/12/02 04:34:50;;;;;;;;;;;;;;;-1.42;100.00;90365.38;5071318;28;19920;-67
2021/12/02 04:37:16;;;;;;;;;;;;;;;-1.30;100.00;90368.59;5069642;28;19922;-66
2021/12/02 04:39:41;;;;;;;;;;;;;;;-1.13;100.00;90377.03;5070971;28;20403;-67
2021/12/02 04:42:07;;;;;;;;;;;;;;;-1.01;100.00;90379.47;5070727;28;20359;-66
2021/12/02 04:44:32;;;;;;;;;;;;;;;-0.97;100.00;90376.09;5069488;28;19952;-67
2021/12/02 04:46:58;;;;;;;;;;;;;;;-0.92;100.00;90378.75;5071547;28;19916;-67
2021/12/02 04:49:23;;;;;;;;;;;;;;;-1.02;100.00;90372.69;5089242;28;19959;-65
2021/12/02 04:51:48;;;;;;;;;;;;;;;-1.08;100.00;90373.69;5089861;28;19927;-67
2021/12/02 04:54:14;;;;;;;;;;;;;;;-1.14;100.00;90367.66;5090392;28;19920;-65
2021/12/02 04:56:39;;;;;;;;;;;;;;;-1.15;100.00;90367.91;5090510;28;20436;-66
2021/12/02 04:59:04;;;;;;;;;;;;;;;-1.11;100.00;90363.75;5090080;28;19916;-67
2021/12/02 05:01:30;;;;;;;;;;;;;;;-1.14;100.00;90362.44;5089539;28;19956;-66
2021/12/02 05:03:55;;;;;;;;;;;;;;;-1.21;100.00;90360.03;5090229;28;20416;-65
2021/12/02 05:06:21;;;;;;;;;;;;;;;-1.36;100.00;90357.34;5090578;28;19912;-66
2021/12/02 05:08:46;;;;;;;;;;;;;;;-1.39;100.00;90367.50;5090977;28;19915;-66
2021/12/02 05:11:11;;;;;;;;;;;;;;;-1.31;100.00;90361.78;5090415;28;19918;-65
2021/12/02 05:13:37;;;;;;;;;;;;;;;-1.31;100.00;90361.78;5090873;28;20387;-65
2021/12/02 05:16:02;;;;;;;;;;;;;;;-1.46;100.00;90357.25;5091037;28;19919;-65
2021/12/02 05:18:28;;;;;;;;;;;;;;;-1.47;100.00;90360.13;5089938;28;19908;-65
2021/12/02 05:20:53;;;;;;;;;;;;;;;-1.42;100.00;90365.38;5091046;28;20026;-64
2021/12/02 05:23:18;;;;;;;;;;;;;;;-1.41;100.00;90359.94;5091092;28;19952;-64
2021/12/02 05:25:44;;;;;;;;;;;;;;;-1.42;100.00;90354.94;5091123;28;19928;-64
2021/12/02 05:28:11;;;;;;;;;;;;;;;-1.54;100.00;90348.09;5094341;28;19934;-64
2021/12/02 05:30:37;;;;;;;;;;;;;;;-1.46;100.00;90352.03;5094540;28;20372;-64
2021/12/02 05:33:02;;;;;;;;;;;;;;;-1.43;100.00;90345.53;5094746;28;19995;-64
2021/12/02 05:35:28;;;;;;;;;;;;;;;-1.52;100.00;90366.09;5094715;28;19939;-64
2021/12/02 05:37:53;;;;;;;;;;;;;;;-1.65;100.00;90366.53;5094692;28;19912;-64
2021/12/02 05:40:18;;;;;;;;;;;;;;;-1.65;100.00;90369.13;5094377;28;20015;-65
2021/12/02 05:42:44;;;;;;;;;;;;;;;-1.68;100.00;90359.19;5094578;28;19923;-64
2021/12/02 05:45:09;;;;;;;;;;;;;;;-1.61;100.00;90365.75;5094421;28;19915;-64
2021/12/02 05:47:35;;;;;;;;;;;;;;;-1.52;100.00;90364.28;5094175;28;20393;-64
2021/12/02 05:50:00;;;;;;;;;;;;;;;-1.49;100.00;90343.94;5094322;28;19912;-64
2021/12/02 05:52:26;;;;;;;;;;;;;;;-1.46;100.00;90336.41;5094292;28;19912;-64
2021/12/02 05:54:52;;;;;;;;;;;;;;;-1.38;100.00;90337.75;5093041;28;19912;-64
2021/12/02 05:57:18;;;;;;;;;;;;;;;-1.28;100.00;90337.81;5094277;28;19963;-64
2021/12/02 05:59:43;;;;;;;;;;;;;;;-1.18;100.00;90337.88;5094015;28;19962;-64
2021/12/02 06:02:08;;;;;;;;;;;;;;;-1.10;100.00;90326.19;5094019;28;19923;-64
2021/12/02 06:04:37;;;;;;;;;;;;;;;-1.09;100.00;90336.38;5093957;28;20317;-64
2021/12/02 06:07:03;;;;;;;;;;;;;;;-1.03;100.00;90339.78;5094113;28;19955;-65
2021/12/02 06:09:28;;;;;;;;;;;;;;;-0.94;100.00;90328.63;5094018;28;19974;-64
2021/12/02 06:11:54;;;;;;;;;;;;;;;-0.94;100.00;90330.44;5092557;28;19957;-64
2021/12/02 06:14:19;;;;;;;;;;;;;;;-1.12;100.00;90325.63;5093865;28;20057;-64
2021/12/02 06:16:44;;;;;;;;;;;;;;;-1.09;100.00;90325.16;5093851;28;20416;-64
2021/12/02 06:19:10;;;;;;;;;;;;;;;-1.13;100.00;90335.28;5093861;28;19912;-64
2021/12/02 06:21:35;;;;;;;;;;;;;;;-1.07;100.00;90325.69;5093622;28;19934;-64
2021/12/02 06:24:03;;;;;;;;;;;;;;;-1.03;100.00;90327.53;5091968;28;19912;-65
2021/12/02 06:26:29;;;;;;;;;;;;;;;-1.03;100.00;90337.97;5093673;28;19916;-64
2021/12/02 06:28:54;;;;;;;;;;;;;;;-1.05;100.00;90332.22;5093680;28;19923;-64
2021/12/02 06:31:20;;;;;;;;;;;;;;;-0.91;100.00;90330.72;5093311;28;19974;-64
2021/12/02 06:33:46;;;;;;;;;;;;;;;-0.77;100.00;90336.25;5093538;28;20367;-64
2021/12/02 06:36:11;;;;;;;;;;;;;;;-0.74;100.00;90330.53;5093471;28;19962;-64
2021/12/02 06:38:36;;;;;;;;;;;;;;;-0.65;100.00;90334.19;5092213;28;19954;-64
2021/12/02 06:41:02;;;;;;;;;;;;;;;-0.50;100.00;90333.47;5093049;28;19963;-64
2021/12/02 06:43:27;;;;;;;;;;;;;;;-0.34;100.00;90334.28;5093379;28;19912;-64
2021/12/02 06:45:53;;;;;;;;;;;;;;;-0.20;100.00;90334.59;5093253;28;19912;-64
2021/12/02 06:48:18;;;;;;;;;;;;;;;0.07;100.00;90327.31;5093197;28;19916;-64
2021/12/02 06:50:44;;;;;;;;;;;;;;;0.27;100.00;90335.19;5093295;28;20189;-64
2021/12/02 06:53:09;;;;;;;;;;;;;;;0.22;100.00;90329.16;5093058;28;19973;-64
2021/12/02 06:55:35;;;;;;;;;;;;;;;0.29;100.00;90322.63;5093046;28;20343;-64
2021/12/02 06:58:00;;;;;;;;;;;;;;;0.46;100.00;90322.34;5093043;28;20403;-64
2021/12/02 07:00:25;;;;;;;;;;;;;;;0.62;100.00;90327.56;5092845;28;19912;-64
2021/12/02 07:02:52;;;;;;;;;;;;;;;0.81;100.00;90326.00;5092989;28;19919;-64
2021/12/02 07:05:18;;;;;;;;;;;;;;;1.17;100.00;90327.47;5092848;28;19912;-64
2021/12/02 07:07:45;;;;;;;;;;;;;;;1.90;100.00;90320.88;5092863;28;19912;-64
2021/12/02 07:10:17;;;;;;;;;;;;;;;2.60;92.14;90319.59;5092771;28;20006;-64
2021/12/02 07:12:44;;;;;;;;;;;;;;;3.39;84.45;90316.75;5092773;28;19912;-64
2021/12/02 07:15:16;;;;;;;;;;;;;;;5.51;75.88;90319.91;5092691;28;19919;-64
2021/12/02 07:17:42;;;;;;;;;;;;;;;7.08;66.93;90320.28;5092723;28;20011;-64
2021/12/02 07:20:08;;;;;;;;;;;;;;;7.20;63.58;90317.88;5091826;28;19951;-64
2021/12/02 07:22:33;;;;;;;;;;;;;;;6.88;63.46;90321.56;5092570;28;19918;-64
2021/12/02 07:24:59;;;;;;;;;;;;;;;6.21;65.09;90326.75;5092488;28;20309;-64
2021/12/02 07:27:24;;;;;;;;;;;;;;;5.96;66.60;90317.50;5092506;28;19920;-64
2021/12/02 07:29:49;;;;;;;;;;;;;;;5.75;66.56;90316.31;5092375;28;19955;-64
2021/12/02 07:32:15;;;;;;;;;;;;;;;5.16;68.51;90316.06;5092424;28;20385;-64
2021/12/02 07:34:43;;;;;;;;;;;;;;;5.06;70.22;90316.25;5092448;28;19912;-64
2021/12/02 07:37:09;;;;;;;;;;;;;;;7.01;65.07;90323.34;5092309;28;19912;-64
2021/12/02 07:39:34;;;;;;;;;;;;;;;9.04;59.10;90316.97;5092363;28;19923;-64
2021/12/02 07:42:00;;;;;;;;;;;;;;;10.79;53.85;90325.50;5091719;28;19916;-64
2021/12/02 07:44:25;;;;;;;;;;;;;;;11.42;52.02;90324.69;5092034;28;19966;-64
2021/12/02 07:46:51;;;;;;;;;;;;;;;12.38;49.48;90327.91;5092199;28;19916;-65
2021/12/02 07:49:16;;;;;;;;;;;;;;;14.25;46.80;90336.22;5091766;28;19912;-64
2021/12/02 07:51:43;;;;;;;;;;;;;;;16.03;42.58;90350.84;5091997;28;19946;-65
2021/12/02 07:54:08;;;;;;;;;;;;;;;16.42;40.68;90346.97;5092058;28;19912;-65
2021/12/02 07:56:34;;;;;;;;;;;;;;;16.99;38.96;90341.75;5092031;28;19981;-65
2021/12/02 07:59:00;;;;;;;;;;;;;;;15.70;40.82;90344.09;5092010;28;19916;-65
2021/12/02 08:01:25;;;;;;;;;;;;;;;15.81;40.59;90345.09;5091930;28;19920;-65
2021/12/02 08:03:51;;;;;;;;;;;;;;;15.84;40.65;90344.38;5092083;28;20008;-65
2021/12/02 08:06:17;;;;;;;;;;;;;;;18.12;37.90;90344.38;5091828;28;19933;-65
2021/12/02 08:08:44;;;;;;;;;;;;;;;17.42;38.47;90342.34;5091906;28;19960;-65
2021/12/02 08:11:10;;;;;;;;;;;;;;;16.05;39.50;90337.84;5091766;28;19962;-65
2021/12/02 08:13:36;;;;;;;;;;;;;;;19.77;35.78;90339.97;5091848;28;20034;-65
2021/12/02 08:16:02;;;;;;;;;;;;;;;20.45;33.71;90340.97;5091888;28;20391;-65
2021/12/02 08:18:28;;;;;;;;;;;;;;;22.68;29.87;90338.31;5091795;28;19912;-65
2021/12/02 08:20:54;;;;;;;;;;;;;;;22.74;28.77;90342.16;5091896;28;19918;-65
2021/12/02 08:23:20;;;;;;;;;;;;;;;23.38;28.42;90346.38;5091706;28;19916;-66
2021/12/02 08:25:45;;;;;;;;;;;;;;;25.06;27.81;90356.94;5091649;28;19923;-66
2021/12/02 08:28:11;;;;;;;;;;;;;;;22.94;28.39;90351.34;5091743;28;19912;-66
2021/12/02 08:30:37;;;;;;;;;;;;;;;20.15;31.65;90356.69;5091631;28;19912;-64
2021/12/02 08:33:03;;;;;;;;;;;;;;;18.72;32.51;90347.69;5091587;28;19912;-64
2021/12/02 08:35:29;;;;;;;;;;;;;;;18.59;33.24;90342.91;5091624;28;19912;-65
2021/12/02 08:38:00;;;;;;;;;;;;;;;18.61;32.84;90346.78;5091642;28;19943;-65
2021/12/02 08:40:33;;;;;;;;;;;;;;;16.99;35.89;90341.75;5091307;28;19916;-65
2021/12/02 08:43:00;;;;;;;;;;;;;;;17.43;35.74;90346.59;5091449;28;19970;-64
2021/12/02 08:45:26;;;;;;;;;;;;;;;18.15;35.02;90336.34;5091485;28;19955;-65
2021/12/02 08:47:52;;;;;;;;;;;;;;;20.31;33.03;90346.31;5091473;28;19912;-65
2021/12/02 08:50:19;;;;;;;;;;;;;;;20.99;30.77;90344.53;5091401;28;19981;-65
2021/12/02 08:52:45;;;;;;;;;;;;;;;20.89;30.38;90337.97;5091523;28;20458;-65
2021/12/02 08:55:11;;;;;;;;;;;;;;;22.53;29.05;90340.31;5091432;28;19918;-65
2021/12/02 08:57:36;;;;;;;;;;;;;;;23.60;27.91;90334.94;5091458;28;19916;-65
2021/12/02 09:00:04;;;;;;;;;;;;;;;24.35;26.63;90333.38;5091346;28;20309;-65
2021/12/02 09:02:29;;;;;;;;;;;;;;;24.49;26.52;90325.06;5093738;28;19938;-65
2021/12/02 09:04:54;;;;;;;;;;;;;;;24.89;27.53;90325.28;5095190;28;19916;-66
2021/12/02 09:07:20;;;;;;;;;;;;;;;24.81;25.95;90313.75;5095207;28;19916;-66
2021/12/02 09:09:45;;;;;;;;;;;;;;;23.99;26.03;90309.31;5095088;28;19918;-66
2021/12/02 09:12:11;;;;;;;;;;;;;;;23.60;27.43;90310.50;5094970;28;20385;-66
2021/12/02 09:14:36;;;;;;;;;;;;;;;24.78;25.81;90318.06;5093644;28;19912;-66
2021/12/02 09:17:02;;;;;;;;;;;;;;;25.41;26.17;90314.78;5095064;28;19912;-66
2021/12/02 09:19:27;;;;;;;;;;;;;;;27.26;24.25;90304.94;5094993;28;19916;-66
2021/12/02 09:21:53;;;;;;;;;;;;;;;26.14;23.90;90304.94;5094750;28;19912;-66
2021/12/02 09:24:18;;;;;;;;;;;;;;;25.27;24.76;90301.41;5094777;28;20705;-67
2021/12/02 09:26:48;;;;;;;;;;;;;;;25.26;25.00;90299.88;5095123;28;19916;-67
2021/12/02 09:29:14;;;;;;;;;;;;;;;25.11;24.97;90299.31;5093506;28;19912;-66
2021/12/02 09:31:39;;;;;;;;;;;;;;;25.47;24.58;90287.84;5094631;28;20302;-66
2021/12/02 09:34:05;;;;;;;;;;;;;;;25.36;25.85;90288.00;5094664;28;20007;-66
2021/12/02 09:36:32;;;;;;;;;;;;;;;23.71;26.14;90288.66;5094657;28;19912;-66
2021/12/02 09:38:57;;;;;;;;;;;;;;;24.01;27.32;90285.22;5094581;28;19912;-66
2021/12/02 09:41:23;;;;;;;;;;;;;;;22.63;27.15;90271.72;5094277;28;20395;-65
2021/12/02 09:43:48;;;;;;;;;;;;;;;20.90;29.27;90265.72;5094379;28;19916;-66
2021/12/02 09:46:14;;;;;;;;;;;;;;;21.51;29.45;90274.56;5094668;28;20412;-67
2021/12/02 09:48:39;;;;;;;;;;;;;;;22.28;28.75;90269.25;5094701;28;19969;-66
2021/12/02 09:51:10;;;;;;;;;;;;;;;22.56;28.20;90262.84;5094266;28;20397;-66
2021/12/02 09:56:18;;;;;;;;;;;;;;;21.28;30.81;90244.44;5094253;28;19927;-65
2021/12/02 09:58:44;;;;;;;;;;;;;;;21.89;29.52;90239.59;5094142;28;20101;-66
2021/12/02 10:01:15;;;;;;;;;;;;;;;22.04;29.48;90249.97;5094291;28;20415;-66
2021/12/02 10:03:44;;;;;;;;;;;;;;;21.41;30.22;90242.88;5094110;28;19919;-66
2021/12/02 10:06:14;;;;;;;;;;;;;;;22.71;28.61;90248.03;5094032;28;20436;-65
2021/12/02 10:09:06;;;;;;;;;;;;;;;22.18;29.65;90246.44;5093991;28;19916;-65
2021/12/02 10:11:32;;;;;;;;;;;;;;;22.94;28.92;90239.38;5093304;28;19916;-65
2021/12/02 10:14:10;;;;;;;;;;;;;;;22.57;29.45;90240.03;5093503;28;20032;-65
2021/12/02 10:16:39;;;;;;;;;;;;;;;22.22;29.19;90235.59;5093823;28;19919;-65
2021/12/02 10:19:13;;;;;;;;;;;;;;;22.19;30.41;90236.38;5093846;28;19916;-65
2021/12/02 10:21:42;;;;;;;;;;;;;;;21.95;31.33;90227.22;5093831;28;20011;-65
2021/12/02 10:24:11;;;;;;;;;;;;;;;20.80;31.53;90223.25;5093417;28;20475;-65
2021/12/02 10:27:05;;;;;;;;;;;;;;;20.75;31.73;90218.25;5093458;28;19919;-65
2021/12/02 10:29:33;;;;;;;;;;;;;;;20.32;33.29;90229.00;5080389;28;19912;-65
2021/12/02 10:32:10;;;;;;;;;;;;;;;21.03;31.77;90223.63;5093457;28;19912;-65
2021/12/02 10:34:49;;;;;;;;;;;;;;;23.41;29.15;90216.03;5093538;28;19920;-65
2021/12/02 10:37:14;;;;;;;;;;;;;;;20.41;33.03;90196.22;5093448;28;20386;-65
2021/12/02 10:39:40;;;;;;;;;;;;;;;21.69;30.63;90213.00;5093561;28;19912;-66
2021/12/02 10:42:07;;;;;;;;;;;;;;;23.20;28.60;90206.19;5093123;28;20293;-65
2021/12/02 10:44:36;;;;;;;;;;;;;;;20.72;31.92;90192.00;5093229;28;19912;-66
2021/12/02 10:47:05;;;;;;;;;;;;;;;21.73;32.08;90200.22;5093282;28;19912;-65
2021/12/02 10:49:34;;;;;;;;;;;;;;;20.09;31.87;90194.28;5093021;28;20305;-65
2021/12/02 10:52:01;;;;;;;;;;;;;;;17.78;35.60;90187.56;5093345;28;20363;-65
2021/12/02 10:54:28;;;;;;;;;;;;;;;17.02;37.74;90179.78;5092981;28;19912;-65
2021/12/02 10:56:55;;;;;;;;;;;;;;;17.00;36.49;90182.06;5092968;28;19912;-65
2021/12/02 10:59:27;;;;;;;;;;;;;;;15.04;39.38;90173.56;5093075;28;19920;-64
2021/12/02 11:01:53;;;;;;;;;;;;;;;15.35;41.52;90177.19;5092745;28;19922;-64
2021/12/02 11:04:19;;;;;;;;;;;;;;;15.01;42.29;90174.28;5092991;28;19965;-65
2021/12/02 11:06:45;;;;;;;;;;;;;;;14.78;42.73;90163.47;5092878;28;19931;-65
2021/12/02 11:09:30;;;;;;;;;;;;;;;15.30;40.43;90172.88;5092859;28;19912;-66
2021/12/02 11:12:14;;;;;;;;;;;;;;;16.41;41.49;90168.25;5092766;28;19946;-65
2021/12/02 11:14:42;;;;;;;;;;;;;;;16.71;38.12;90159.44;5092702;28;19920;-66
2021/12/02 11:17:12;;;;;;;;;;;;;;;16.99;37.20;90162.50;5092650;28;19911;-65
2021/12/02 11:19:37;;;;;;;;;;;;;;;17.44;39.11;90158.00;5092794;28;19920;-66
2021/12/02 11:22:04;;;;;;;;;;;;;;;18.64;35.48;90151.34;5092610;28;20275;-66
2021/12/02 11:24:29;;;;;;;;;;;;;;;19.31;34.43;90145.50;5091804;28;20009;-66
2021/12/02 11:27:24;;;;;;;;;;;;;;;19.33;35.44;90140.50;5091227;28;19926;-64
2021/12/02 11:30:00;;;;;;;;;;;;;;;22.28;31.84;90141.88;5078869;28;19916;-64
2021/12/02 11:32:36;;;;;;;;;;;;;;;24.10;30.54;90149.63;5092331;28;19919;-65
2021/12/02 11:35:15;;;;;;;;;;;;;;;22.83;30.78;90133.66;5092225;28;19912;-64
2021/12/02 11:37:42;;;;;;;;;;;;;;;22.39;31.23;90127.06;5092156;28;19912;-65
2021/12/02 11:40:10;;;;;;;;;;;;;;;21.94;31.30;90126.25;5092104;28;19919;-64
2021/12/02 11:42:39;;;;;;;;;;;;;;;21.59;32.17;90132.63;5091995;28;19916;-66
2021/12/02 11:45:06;;;;;;;;;;;;;;;22.07;31.56;90126.53;5090788;28;19931;-64
2021/12/02 11:47:32;;;;;;;;;;;;;;;19.61;34.59;90132.50;5092053;28;19919;-64
2021/12/02 11:49:58;;;;;;;;;;;;;;;19.73;34.57;90134.06;5091752;28;20003;-64
2021/12/02 11:52:23;;;;;;;;;;;;;;;18.64;35.30;90133.25;5092158;28;19991;-64
2021/12/02 11:54:49;;;;;;;;;;;;;;;19.47;35.37;90128.97;5091842;28;20308;-64
2021/12/02 11:57:14;;;;;;;;;;;;;;;19.02;36.09;90126.50;5091933;28;20298;-66
2021/12/02 11:59:40;;;;;;;;;;;;;;;21.79;32.43;90122.84;5092138;28;19916;-65
2021/12/02 12:02:06;;;;;;;;;;;;;;;21.14;32.97;90132.38;5091885;28;19925;-65
2021/12/02 12:04:35;;;;;;;;;;;;;;;21.19;33.87;90113.06;5091982;28;20011;-64
2021/12/02 12:07:13;;;;;;;;;;;;;;;21.89;32.57;90115.03;5092143;28;19912;-65
2021/12/02 12:09:39;;;;;;;;;;;;;;;23.93;29.62;90118.03;5091760;28;19919;-65
2021/12/02 12:12:05;;;;;;;;;;;;;;;23.15;30.71;90105.44;5091876;28;19916;-65
2021/12/02 12:14:38;;;;;;;;;;;;;;;21.86;31.32;90099.59;5092052;28;19912;-65
2021/12/02 12:17:06;;;;;;;;;;;;;;;24.13;28.94;90108.03;5091824;28;19956;-65
2021/12/02 12:19:37;;;;;;;;;;;;;;;24.13;29.10;90105.31;5091628;28;20010;-65
2021/12/02 12:22:08;;;;;;;;;;;;;;;24.77;27.36;90107.06;5091750;28;19965;-65
2021/12/02 12:24:43;;;;;;;;;;;;;;;24.75;28.57;90103.94;5091589;28;20389;-65
2021/12/02 12:27:19;;;;;;;;;;;;;;;25.05;27.99;90100.34;5091501;28;19912;-65
2021/12/02 12:29:47;;;;;;;;;;;;;;;23.93;29.27;90093.59;5090271;28;19916;-65
2021/12/02 12:33:00;;;;;;;;;;;;;;;24.70;27.92;90088.13;5091579;28;19912;-65
2021/12/02 12:35:10;;;;;;;;;;;;;;;24.22;28.00;90090.44;5085850;28;19912;-65
2021/12/02 12:40:19;;;;;;;;;;;;;;;24.02;27.79;90084.94;5095604;28;19912;-65
2021/12/02 12:42:50;;;;;;;;;;;;;;;22.96;29.20;90087.81;5095498;28;19927;-65
2021/12/02 12:45:37;;;;;;;;;;;;;;;21.42;30.82;90084.75;5095739;28;19915;-64
2021/12/02 12:48:05;;;;;;;;;;;;;;;19.74;34.39;90087.03;5095841;28;19965;-64
2021/12/02 12:50:30;;;;;;;;;;;;;;;17.02;39.08;90093.81;5095217;28;19912;-65
2021/12/02 12:53:04;;;;;;;;;;;;;;;15.59;41.42;90096.47;5095461;28;19923;-65
2021/12/02 12:55:31;;;;;;;;;;;;;;;14.67;44.99;90093.69;5095393;28;19965;-65
2021/12/02 12:58:16;;;;;;;;;;;;;;;14.77;44.44;90092.31;5095369;28;20404;-65
2021/12/02 13:00:42;;;;;;;;;;;;;;;13.98;45.38;90089.91;5095263;28;19958;-65